Time,TemperatureF,DewpointF,PressureIn,WindDirection,WindDirectionDegrees,WindSpeedMPH,WindSpeedGustMPH,Humidity,HourlyPrecipIn,Conditions,Clouds,dailyrainin,SolarRadiationWatts/m^2,SoftwareType,DateUTC
2013-11-01 00:14:00,39.7,30.0,30.19,NNW,335,11.0,-999.0,68,-99.99,,,0.00,0,weatherlink.com 1.10,2013-11-01 06:14:00,
2013-11-01 00:29:00,40.2,30.0,30.20,NW,315,13.0,-999.0,68,-99.99,,,0.00,0,weatherlink.com 1.10,2013-11-01 06:29:00,
2013-11-01 00:44:00,39.1,30.0,30.20,NNW,327,5.0,-999.0,70,-99.99,,,0.00,0,weatherlink.com 1.10,2013-11-01 06:44:00,
2013-11-01 00:59:00,38.5,30.0,30.22,NW,321,5.0,-999.0,72,-99.99,,,0.00,0,weatherlink.com 1.10,2013-11-01 06:59:00,
2013-11-01 01:14:00,38.6,31.0,30.22,NW,314,8.0,-999.0,73,-99.99,,,0.00,0,weatherlink.com 1.10,2013-11-01 07:14:00,
2013-11-01 01:29:00,38.3,31.0,30.23,NW,319,6.0,-999.0,74,-99.99,,,0.00,0,weatherlink.com 1.10,2013-11-01 07:29:00,
2013-11-01 01:44:00,37.2,30.0,30.23,NNE,17,3.0,-999.0,75,-99.99,,,0.00,0,weatherlink.com 1.10,2013-11-01 07:44:00,
2013-11-01 02:00:00,36.0,29.0,30.25,North,355,3.0,-999.0,77,-99.99,,,0.00,0,weatherlink.com 1.10,2013-11-01 08:00:00,
2013-11-01 02:30:00,37.5,30.0,30.24,ENE,67,8.0,-999.0,74,-99.99,,,0.00,0,weatherlink.com 1.10,2013-11-01 08:30:00,
2013-11-01 02:45:00,36.3,30.0,30.26,ENE,57,0.0,-999.0,77,-99.99,,,0.00,0,weatherlink.com 1.10,2013-11-01 08:45:00,
2013-11-01 03:00:00,36.3,30.0,30.27,WNW,301,0.0,-999.0,77,-99.99,,,0.00,0,weatherlink.com 1.10,2013-11-01 09:00:00,
2013-11-01 03:15:00,36.1,30.0,30.27,NW,304,0.0,-999.0,77,-99.99,,,0.00,0,weatherlink.com 1.10,2013-11-01 09:15:00,
2013-11-01 03:30:00,36.2,30.0,30.28,NW,304,0.0,-999.0,77,-99.99,,,0.00,0,weatherlink.com 1.10,2013-11-01 09:30:00,
2013-11-01 03:45:00,36.2,30.0,30.28,NNW,341,0.0,-999.0,77,-99.99,,,0.00,0,weatherlink.com 1.10,2013-11-01 09:45:00,
2013-11-01 04:00:00,34.6,29.0,30.29,NNE,17,0.0,-999.0,79,-99.99,,,0.00,0,weatherlink.com 1.10,2013-11-01 10:00:00,
2013-11-01 04:15:00,34.3,29.0,30.29,NW,308,0.0,-999.0,81,-99.99,,,0.00,0,weatherlink.com 1.10,2013-11-01 10:15:00,
2013-11-01 04:30:00,35.1,29.0,30.30,NNW,340,0.0,-999.0,79,-99.99,,,0.00,0,weatherlink.com 1.10,2013-11-01 10:30:00,
2013-11-01 04:45:00,35.3,29.0,30.30,NNW,335,2.0,-999.0,79,-99.99,,,0.00,0,weatherlink.com 1.10,2013-11-01 10:45:00,
2013-11-01 05:00:00,36.8,27.0,30.30,NW,305,2.0,-999.0,68,-99.99,,,0.00,0,weatherlink.com 1.10,2013-11-01 11:00:00,
2013-11-01 05:15:00,37.0,27.0,30.31,NW,304,5.0,-999.0,66,-99.99,,,0.00,0,weatherlink.com 1.10,2013-11-01 11:15:00,
2013-11-01 05:31:00,37.3,26.0,30.31,NW,317,4.0,-999.0,64,-99.99,,,0.00,0,weatherlink.com 1.10,2013-11-01 11:31:00,
2013-11-01 05:45:00,36.9,26.0,30.32,NW,325,4.0,-999.0,64,-99.99,,,0.00,0,weatherlink.com 1.10,2013-11-01 11:45:00,
2013-11-01 06:00:00,36.4,25.0,30.32,NW,323,6.0,-999.0,64,-99.99,,,0.00,0,weatherlink.com 1.10,2013-11-01 12:00:00,
2013-11-01 06:16:00,35.5,25.0,30.32,NW,318,6.0,-999.0,65,-99.99,,,0.00,0,weatherlink.com 1.10,2013-11-01 12:16:00,
2013-11-01 06:30:00,35.1,24.0,30.33,NW,311,5.0,-999.0,65,-99.99,,,0.00,0,weatherlink.com 1.10,2013-11-01 12:30:00,
2013-11-01 06:46:00,35.0,25.0,30.33,NNW,340,7.0,-999.0,66,-99.99,,,0.00,0,weatherlink.com 1.10,2013-11-01 12:46:00,
2013-11-01 07:01:00,34.8,24.0,30.33,NW,319,1.0,-999.0,66,-99.99,,,0.00,0,weatherlink.com 1.10,2013-11-01 13:01:00,
2013-11-01 07:16:00,34.1,25.0,30.34,WNW,299,0.0,-999.0,69,-99.99,,,0.00,0,weatherlink.com 1.10,2013-11-01 13:16:00,
2013-11-01 07:30:00,33.3,24.0,30.35,WNW,296,0.0,-999.0,69,-99.99,,,0.00,0,weatherlink.com 1.10,2013-11-01 13:30:00,
2013-11-01 07:46:00,33.0,24.0,30.35,WNW,286,0.0,-999.0,69,-99.99,,,0.00,0,weatherlink.com 1.10,2013-11-01 13:46:00,
2013-11-01 08:01:00,32.5,24.0,30.35,NNW,331,5.0,-999.0,71,-99.99,,,0.00,9,weatherlink.com 1.10,2013-11-01 14:01:00,
2013-11-01 08:16:00,32.6,24.0,30.35,NW,323,4.0,-999.0,71,-99.99,,,0.00,25,weatherlink.com 1.10,2013-11-01 14:16:00,
2013-11-01 08:32:00,32.8,25.0,30.36,North,10,4.0,-999.0,73,-99.99,,,0.00,62,weatherlink.com 1.10,2013-11-01 14:32:00,
2013-11-01 08:46:00,32.5,26.0,30.38,NE,35,8.0,-999.0,76,-99.99,,,0.00,105,weatherlink.com 1.10,2013-11-01 14:46:00,
2013-11-01 09:04:00,33.1,27.0,30.38,NNE,24,6.0,-999.0,78,-99.99,,,0.00,167,weatherlink.com 1.10,2013-11-01 15:04:00,
2013-11-01 09:16:00,34.5,28.0,30.39,North,360,6.0,-999.0,77,-99.99,,,0.00,211,weatherlink.com 1.10,2013-11-01 15:16:00,
2013-11-01 09:33:00,35.6,29.0,30.39,NNE,28,7.0,-999.0,76,-99.99,,,0.00,258,weatherlink.com 1.10,2013-11-01 15:33:00,
2013-11-01 09:47:00,36.7,29.0,30.40,NE,46,5.0,-999.0,75,-99.99,,,0.00,295,weatherlink.com 1.10,2013-11-01 15:47:00,
2013-11-01 10:02:00,38.4,30.0,30.40,NE,37,5.0,-999.0,71,-99.99,,,0.00,338,weatherlink.com 1.10,2013-11-01 16:02:00,
2013-11-01 10:16:00,40.5,30.0,30.40,NE,53,5.0,-999.0,66,-99.99,,,0.00,371,weatherlink.com 1.10,2013-11-01 16:16:00,
2013-11-01 10:32:00,41.6,29.0,30.40,NE,38,0.0,-999.0,61,-99.99,,,0.00,408,weatherlink.com 1.10,2013-11-01 16:32:00,
2013-11-01 10:47:00,42.5,30.0,30.40,NE,55,3.0,-999.0,62,-99.99,,,0.00,438,weatherlink.com 1.10,2013-11-01 16:47:00,
2013-11-01 11:02:00,42.7,30.0,30.39,East,94,8.0,-999.0,60,-99.99,,,0.00,468,weatherlink.com 1.10,2013-11-01 17:02:00,
2013-11-01 11:18:00,42.8,29.0,30.39,ENE,63,2.0,-999.0,58,-99.99,,,0.00,492,weatherlink.com 1.10,2013-11-01 17:18:00,
2013-11-01 11:33:00,43.6,28.0,30.39,ENE,74,4.0,-999.0,55,-99.99,,,0.00,515,weatherlink.com 1.10,2013-11-01 17:33:00,
2013-11-01 11:47:00,43.8,28.0,30.39,East,94,7.0,-999.0,54,-99.99,,,0.00,536,weatherlink.com 1.10,2013-11-01 17:47:00,
2013-11-01 12:04:00,44.3,27.0,30.39,ESE,103,2.0,-999.0,51,-99.99,,,0.00,552,weatherlink.com 1.10,2013-11-01 18:04:00,
2013-11-01 12:18:00,45.1,27.0,30.39,SE,138,5.0,-999.0,50,-99.99,,,0.00,566,weatherlink.com 1.10,2013-11-01 18:18:00,
2013-11-01 12:33:00,45.7,27.0,30.38,East,94,0.0,-999.0,48,-99.99,,,0.00,570,weatherlink.com 1.10,2013-11-01 18:33:00,
2013-11-01 12:49:00,47.8,28.0,30.37,East,97,5.0,-999.0,46,-99.99,,,0.00,575,weatherlink.com 1.10,2013-11-01 18:49:00,
2013-11-01 13:04:00,47.4,28.0,30.36,ENE,70,2.0,-999.0,47,-99.99,,,0.00,578,weatherlink.com 1.10,2013-11-01 19:04:00,
2013-11-01 13:18:00,47.8,28.0,30.35,ESE,123,4.0,-999.0,46,-99.99,,,0.00,573,weatherlink.com 1.10,2013-11-01 19:18:00,
2013-11-01 13:33:00,47.4,27.0,30.34,NE,53,3.0,-999.0,46,-99.99,,,0.00,566,weatherlink.com 1.10,2013-11-01 19:33:00,
2013-11-01 13:49:00,48.5,28.0,30.33,NNW,338,0.0,-999.0,45,-99.99,,,0.00,555,weatherlink.com 1.10,2013-11-01 19:49:00,
2013-11-01 14:03:00,50.9,28.0,30.32,WNW,291,0.0,-999.0,41,-99.99,,,0.00,543,weatherlink.com 1.10,2013-11-01 20:03:00,
2013-11-01 14:20:00,50.3,24.0,30.32,WSW,239,6.0,-999.0,36,-99.99,,,0.00,526,weatherlink.com 1.10,2013-11-01 20:20:00,
2013-11-01 14:34:00,50.9,26.0,30.32,NNW,327,4.0,-999.0,38,-99.99,,,0.00,504,weatherlink.com 1.10,2013-11-01 20:34:00,
2013-11-01 14:48:00,52.6,25.0,30.31,NNE,12,0.0,-999.0,34,-99.99,,,0.00,482,weatherlink.com 1.10,2013-11-01 20:48:00,
2013-11-01 15:05:00,51.4,24.0,30.30,West,275,3.0,-999.0,35,-99.99,,,0.00,401,weatherlink.com 1.10,2013-11-01 21:05:00,
2013-11-01 15:19:00,51.5,23.0,30.30,WSW,253,0.0,-999.0,33,-99.99,,,0.00,424,weatherlink.com 1.10,2013-11-01 21:19:00,
2013-11-01 15:34:00,52.3,27.0,30.30,WNW,300,8.0,-999.0,38,-99.99,,,0.00,392,weatherlink.com 1.10,2013-11-01 21:34:00,
2013-11-01 15:49:00,52.8,25.0,30.30,WNW,288,6.0,-999.0,34,-99.99,,,0.00,357,weatherlink.com 1.10,2013-11-01 21:49:00,
2013-11-01 16:04:00,52.6,25.0,30.29,WNW,303,3.0,-999.0,35,-99.99,,,0.00,320,weatherlink.com 1.10,2013-11-01 22:04:00,
2013-11-01 16:19:00,52.4,25.0,30.29,WNW,292,6.0,-999.0,35,-99.99,,,0.00,276,weatherlink.com 1.10,2013-11-01 22:19:00,
2013-11-01 16:34:00,51.7,27.0,30.29,WNW,299,5.0,-999.0,39,-99.99,,,0.00,225,weatherlink.com 1.10,2013-11-01 22:34:00,
2013-11-01 16:49:00,51.1,27.0,30.29,WNW,290,8.0,-999.0,40,-99.99,,,0.00,171,weatherlink.com 1.10,2013-11-01 22:49:00,
2013-11-01 17:04:00,50.6,27.0,30.29,West,267,6.0,-999.0,40,-99.99,,,0.00,118,weatherlink.com 1.10,2013-11-01 23:04:00,
2013-11-01 17:19:00,49.8,27.0,30.29,WSW,255,8.0,-999.0,41,-99.99,,,0.00,72,weatherlink.com 1.10,2013-11-01 23:19:00,
2013-11-01 17:34:00,49.0,27.0,30.29,West,265,10.0,-999.0,42,-99.99,,,0.00,33,weatherlink.com 1.10,2013-11-01 23:34:00,
2013-11-01 17:49:00,47.9,26.0,30.29,WSW,254,6.0,-999.0,43,-99.99,,,0.00,12,weatherlink.com 1.10,2013-11-01 23:49:00,
2013-11-01 18:04:00,46.4,25.0,30.29,WSW,252,6.0,-999.0,44,-99.99,,,0.00,5,weatherlink.com 1.10,2013-11-02 00:04:00,
2013-11-01 18:19:00,45.4,26.0,30.29,WSW,245,5.0,-999.0,46,-99.99,,,0.00,0,weatherlink.com 1.10,2013-11-02 00:19:00,
2013-11-01 18:35:00,44.7,25.0,30.29,WSW,241,6.0,-999.0,46,-99.99,,,0.00,0,weatherlink.com 1.10,2013-11-02 00:35:00,
2013-11-01 18:50:00,44.4,25.0,30.29,WSW,250,7.0,-999.0,46,-99.99,,,0.00,0,weatherlink.com 1.10,2013-11-02 00:50:00,
2013-11-01 19:05:00,43.0,25.0,30.30,West,281,5.0,-999.0,49,-99.99,,,0.00,0,weatherlink.com 1.10,2013-11-02 01:05:00,
2013-11-01 19:20:00,41.8,27.0,30.30,WNW,298,1.0,-999.0,55,-99.99,,,0.00,0,weatherlink.com 1.10,2013-11-02 01:20:00,
2013-11-01 19:35:00,41.0,27.0,30.30,WNW,294,3.0,-999.0,57,-99.99,,,0.00,0,weatherlink.com 1.10,2013-11-02 01:35:00,
2013-11-01 19:50:00,40.5,27.0,30.30,WNW,292,5.0,-999.0,58,-99.99,,,0.00,0,weatherlink.com 1.10,2013-11-02 01:50:00,
2013-11-01 20:05:00,40.1,27.0,30.31,WSW,258,4.0,-999.0,59,-99.99,,,0.00,0,weatherlink.com 1.10,2013-11-02 02:05:00,
2013-11-01 20:20:00,39.4,26.0,30.31,WNW,285,0.0,-999.0,59,-99.99,,,0.00,0,weatherlink.com 1.10,2013-11-02 02:20:00,
2013-11-01 20:35:00,38.9,25.0,30.32,WNW,285,0.0,-999.0,58,-99.99,,,0.00,0,weatherlink.com 1.10,2013-11-02 02:35:00,
2013-11-01 20:50:00,39.3,25.0,30.32,WSW,258,7.0,-999.0,56,-99.99,,,0.00,0,weatherlink.com 1.10,2013-11-02 02:50:00,
2013-11-01 21:05:00,40.5,24.0,30.31,WNW,290,15.0,-999.0,53,-99.99,,,0.00,0,weatherlink.com 1.10,2013-11-02 03:05:00,
2013-11-01 21:20:00,40.3,25.0,30.31,WNW,288,7.0,-999.0,54,-99.99,,,0.00,0,weatherlink.com 1.10,2013-11-02 03:20:00,
2013-11-01 21:35:00,39.5,25.0,30.32,NW,317,6.0,-999.0,56,-99.99,,,0.00,0,weatherlink.com 1.10,2013-11-02 03:35:00,
2013-11-01 21:50:00,39.3,25.0,30.33,WNW,283,11.0,-999.0,56,-99.99,,,0.00,0,weatherlink.com 1.10,2013-11-02 03:50:00,
2013-11-01 22:05:00,39.4,25.0,30.32,West,275,4.0,-999.0,56,-99.99,,,0.00,0,weatherlink.com 1.10,2013-11-02 04:05:00,
2013-11-01 22:20:00,39.5,24.0,30.32,West,275,3.0,-999.0,55,-99.99,,,0.00,0,weatherlink.com 1.10,2013-11-02 04:20:00,
2013-11-01 22:35:00,39.1,24.0,30.33,West,263,0.0,-999.0,56,-99.99,,,0.00,0,weatherlink.com 1.10,2013-11-02 04:35:00,
2013-11-01 22:50:00,38.4,25.0,30.33,NW,311,6.0,-999.0,58,-99.99,,,0.00,0,weatherlink.com 1.10,2013-11-02 04:50:00,
2013-11-01 23:05:00,38.1,25.0,30.32,WNW,290,9.0,-999.0,59,-99.99,,,0.00,0,weatherlink.com 1.10,2013-11-02 05:05:00,
2013-11-01 23:20:00,38.2,25.0,30.32,West,279,5.0,-999.0,59,-99.99,,,0.00,0,weatherlink.com 1.10,2013-11-02 05:20:00,
2013-11-01 23:35:00,38.2,25.0,30.31,WNW,290,11.0,-999.0,59,-99.99,,,0.00,0,weatherlink.com 1.10,2013-11-02 05:35:00,
2013-11-01 23:50:00,39.4,25.0,30.32,WNW,292,9.0,-999.0,56,-99.99,,,0.00,0,weatherlink.com 1.10,2013-11-02 05:50:00,